Airfield :







YOU CAN JOIN US ON...

 
LOGIN :

Register | Disclaimer

   EN    FR    IT 

 









Legend :    VFR   Marginal VFR   IFR   Intensive IFR   Very Intensive IFR
Visi :
Ceiling :
>= 8 km
>= 3000ft
5 to 8 km
1000 to 3000 ft
1500m to 5 km
500 to 1000 ft
800 to 1500m
200 to 500 ft
< 800m
< 200 ft
Symbols :   Thunderstorms  Fog  Heavy snow  Heavy precipitations  Wind > 20 kt







- Airport Elevation : 1663 ft
- IATA code : SLK


KSLK - Adirondack Regional

CURRENT METAR :
  • 160851Z AUTO 00000KT 10SM BKN012 OVC023 12/11 A2985 RMK AO2 SLP108 60000 T01220111 55001

EXPIRED METARs :
  • 160751Z AUTO 00000KT 10SM OVC012 13/12 A2985 RMK AO2 SLP105 T01280117
  • 160721Z AUTO 28003KT 10SM SCT007 BKN014 BKN041 13/12 A2985 RMK AO2 T01280117
  • 160705Z AUTO VRB03KT 10SM BKN006 OVC012 13/12 A2985 RMK AO2 CIG 004V009 T01330122
  • 160651Z AUTO 26003KT 10SM SCT006 BKN012 OVC023 13/12 A2985 RMK AO2 RAB08E17 SLP104 P0000 T01280122
  • 160641Z AUTO VRB04KT 10SM SCT009 BKN013 OVC022 13/12 A2985 RMK AO2 RAB08E17 P0000 T01330122
  • 160627Z AUTO 23004KT 10SM SCT009 BKN015 OVC026 13/12 A2986 RMK AO2 RAB08E17 P0000 T01330122
  • 160551Z AUTO 25005KT 10SM SCT008 OVC014 13/12 A2986 RMK AO2 RAB20E31 SLP104 P0001 60012 T01330122 10139 20133 51003

TAF KSLK
Valid from the 16 at 06:00 until the 17 at 06:00 UTC


160520Z 1606/1706 27005KT 4SM BR OVC004
FM161200 00000KT P6SM SCT035
FM161600 34005KT P6SM BKN070
FM170300 00000KT 2SM BR SCT001
KZBW FIR / North America



MET'MAP, your aeronautical weather chart ! - Copyright ORBIFLY December 2007 - Disclaimer

ORBIFLY MET'MAP TEAM :

Programming & Development : Alexandra Zaïnal
Concept & Development : Baudouin d'Aumeries
Co-Development & Prog : Marc-Olivier Méhu
Technical & hardware support : Manuel Goepfert

Contact : metmap@orbifly.com




SOURCES & CREDITS :

   NOAA